AirNav   Air Wisconsin Up To $57,000 Bonus
 
 686 users online  

37NE Watermeier Airport
Burr, Nebraska, USA

GOING TO BURR?


FAA INFORMATION EFFECTIVE 03 NOVEMBER 2022

Location

FAA Identifier: 37NE
Lat/Long: 40-36-28.0010N 096-18-28.0380W
40-36.466683N 096-18.467300W
40.6077781,-96.3077883
(estimated)
Elevation: 1100 ft. / 335 m (estimated)
Variation: 06E (1985)
From city: 4 miles N of BURR, NE
Time zone: UTC -6 (UTC -5 during Daylight Saving Time)
Zip code: 68454

Airport Operations

Airport use: Private use. Permission required prior to landing
Activation date: 03/1980
Control tower: no
ARTCC: MINNEAPOLIS CENTER
FSS: COLUMBUS FLIGHT SERVICE STATION
Attendance: UNATNDD
Wind indicator: yes
Segmented circle: no

Nearby radio navigation aids

VOR radial/distance  VOR name  Freq  Var
PWEr344/24.9PAWNEE CITY VORTAC112.4005E
LNKr125/27.4LINCOLN VORTAC116.1009E
BIEr041/(27.5)BEATRICE VOR110.6007E

 
NDB name  Hdg/Dist  Freq  Var  ID
NEBRASKA CITY265/20.434705EAFK .- ..-. -.-
PLATTSMOUTH217/27.032905EPMV .--. -- ...-

Airport Services

Runway Information

Runway 15/33

Dimensions: 2000 x 60 ft. / 610 x 18 m
Surface: turf
RUNWAY 15  RUNWAY 33
Traffic pattern: leftleft
Obstructions: roadcreek

Airport Ownership and Management from official FAA records

Ownership: Privately-owned
Owner: JUNIOR L WATERMEIER
RT 1, BOX 96
BURR, NE 68324
Phone 402-828-5090
Manager: JUNIOR L WATERMEIER
RT 1, BOX 96
BURR, NE 68324
Phone 402-828-5090

Airport Operational Statistics

Aircraft based on the field: 1
Single engine airplanes: 1
    

Additional Remarks

FOR CD CTC OMAHA APCH AT 402-682-4395.

Instrument Procedures

There are no published instrument procedures at 37NE.

Some nearby airports with instrument procedures:

0G3 - Tecumseh Municipal Airport (14 nm SE)
KAFK - Nebraska City Municipal Airport (20 nm E)
KLNK - Lincoln Airport (25 nm NW)
KPMV - Plattsmouth Municipal Airport/Douglas V Duey Field (27 nm NE)
K01 - Farington Field Airport (27 nm SE)
 
Loc | Ops | Rwys | IFR | FBO | Links
Com | Nav | Svcs | Stats | Notes
Area around 37NE (Watermeier Airport)
 
Road maps at: MapQuest Bing Google
 
Aerial photo
No photo
 
Sectional chart

 
Airport distance calculator
Flying to Watermeier Airport? Find the distance to fly.

From to 37NE

Sunrise and sunset
Times for 27-Nov-2022
 Local
(UTC-6)
 Zulu
(UTC)
Morning civil twilight06:5612:56
Sunrise07:2613:26
Sunset16:5922:59
Evening civil twilight17:2923:29

Current date and time
Zulu (UTC)  27-Nov-2022 12:49:17
Local (UTC-6)  27-Nov-2022 06:49:17
 
METAR
KAFK 
20nm E 
271235Z AUTO 35014KT 10SM CLR 01/M01 A2976 RMK AO2 T00071012
KLNK 
25nm NW 
271154Z 34016KT 10SM CLR 02/M03 A2982 RMK AO2 PK WND 36026/1109 SLP102 T00171028 10067 20017 51016
KPMV 
27nm NE 
271235Z AUTO 32014KT 10SM CLR 00/M02 A2977 RMK AO2 T00021018
KBIE 
28nm SW 
271235Z AUTO 35015KT 10SM CLR 01/M01 A2981 RMK AO2 T00101014
KOFF 
35nm NE 
271155Z 32013G18KT 10SM CLR 02/M02 A2979 RMK AO2A SLP098 T00181023 10067 20018 53012 PWINO PNO FZRANO TSNO CHINO RWY31 $
KMLE 
36nm N 
271235Z AUTO 32010KT 10SM CLR 01/M02 A2981 RMK AO2 T00111023
KAHQ 
40nm N 
271235Z AUTO 34016G20KT 10SM CLR 00/M03 A2982 RMK AO2 T00001027
TAF
KLNK 
25nm NW 
271126Z 2712/2812 35014G22KT P6SM BKN200 FM271500 34011KT P6SM SCT250
NOTAMs
Click for the latest NOTAMs
NOTAMs are issued by the DoD/FAA and will open in a separate window not controlled by AirNav.

 

 
 

Would you like to see your business listed on this page?

 If your business provides an interesting product or service to pilots, flight crews, aircraft, or users of the Watermeier Airport, you should consider listing it here.  To start the listing process, click on the button below
 
Add a business
 

Other Pages about Watermeier Airport

Update a link
 
Copyright © AirNav, LLC. All rights reserved. Privacy Policy  Contact